createdAt,value
2023-03-27T00:01:24.711Z,3.60
2023-03-27T00:03:53.969Z,3.70
2023-03-27T00:06:22.099Z,3.92
2023-03-27T00:08:53.985Z,3.20
2023-03-27T00:11:25.210Z,3.28
2023-03-27T00:13:54.888Z,2.95
2023-03-27T00:16:24.249Z,3.30
2023-03-27T00:18:51.717Z,2.70
2023-03-27T00:21:19.657Z,2.45
2023-03-27T00:23:47.031Z,2.25
2023-03-27T00:26:14.621Z,3.25
2023-03-27T00:28:42.256Z,2.83
2023-03-27T00:31:13.568Z,2.85
2023-03-27T00:33:41.547Z,2.17
2023-03-27T00:36:10.045Z,2.33
2023-03-27T00:38:37.204Z,1.80
2023-03-27T00:41:05.112Z,2.08
2023-03-27T00:43:34.491Z,2.33
2023-03-27T00:46:16.161Z,1.98
2023-03-27T00:48:47.409Z,2.28
2023-03-27T00:51:15.957Z,2.13
2023-03-27T00:53:44.060Z,1.85
2023-03-27T00:56:11.685Z,3.38
2023-03-27T00:58:53.106Z,3.00
2023-03-27T01:01:24.087Z,3.35
2023-03-27T01:03:52.804Z,3.70
2023-03-27T01:06:21.585Z,3.50
2023-03-27T01:08:48.413Z,2.65
2023-03-27T01:11:37.317Z,2.00
2023-03-27T01:14:22.458Z,2.13
2023-03-27T01:17:14.560Z,2.38
2023-03-27T01:19:57.026Z,2.25
2023-03-27T01:22:32.748Z,2.38
2023-03-27T01:25:27.854Z,5.30
2023-03-27T01:28:20.999Z,4.18
2023-03-27T01:30:52.680Z,3.65
2023-03-27T01:34:03.835Z,3.03
2023-03-27T01:37:08.167Z,2.60
2023-03-27T01:40:08.191Z,2.67
2023-03-27T01:42:47.528Z,2.45
2023-03-27T01:45:23.437Z,2.92
2023-03-27T01:48:17.377Z,2.47
2023-03-27T01:50:56.893Z,2.60
2023-03-27T01:53:33.627Z,2.67
2023-03-27T01:56:26.898Z,2.50
2023-03-27T01:58:59.841Z,2.38
2023-03-27T02:01:37.971Z,2.40
2023-03-27T02:04:11.381Z,3.65
2023-03-27T02:06:47.663Z,3.00
2023-03-27T02:09:49.431Z,3.00
2023-03-27T02:12:24.776Z,2.70
2023-03-27T02:15:23.981Z,2.38
2023-03-27T02:17:53.661Z,2.70
2023-03-27T02:20:21.376Z,2.40
2023-03-27T02:22:51.569Z,4.35
2023-03-27T02:25:25.694Z,2.75
2023-03-27T02:28:12.826Z,3.45
2023-03-27T02:31:32.632Z,2.78
2023-03-27T02:34:05.281Z,3.03
2023-03-27T02:36:38.833Z,3.53
2023-03-27T02:39:19.051Z,3.25
2023-03-27T02:42:01.034Z,3.47
2023-03-27T02:44:51.979Z,3.50
2023-03-27T02:47:18.827Z,3.75
2023-03-27T02:50:04.484Z,3.33
2023-03-27T02:52:40.009Z,2.75
2023-03-27T02:55:14.457Z,3.47
2023-03-27T02:57:52.334Z,2.95
2023-03-27T03:00:25.889Z,3.60
2023-03-27T03:03:33.075Z,3.63
2023-03-27T03:06:00.192Z,3.95
2023-03-27T03:08:30.793Z,3.83
2023-03-27T03:11:03.591Z,3.22
2023-03-27T03:13:30.932Z,3.10
2023-03-27T03:15:58.617Z,2.58
2023-03-27T03:18:25.450Z,2.60
2023-03-27T03:20:55.018Z,3.45
2023-03-27T03:23:26.374Z,3.17
2023-03-27T03:25:57.014Z,2.72
2023-03-27T03:28:27.579Z,2.13
2023-03-27T03:30:57.362Z,3.00
2023-03-27T03:33:26.254Z,3.22
2023-03-27T03:35:53.590Z,3.15
2023-03-27T03:38:25.177Z,2.80
2023-03-27T03:40:56.510Z,2.72
2023-03-27T03:43:25.604Z,2.63
2023-03-27T03:45:52.782Z,2.80
2023-03-27T03:48:20.661Z,2.70
2023-03-27T03:50:49.521Z,3.13
2023-03-27T03:53:21.879Z,2.85
2023-03-27T03:55:52.654Z,2.83
2023-03-27T03:58:20.291Z,3.35
2023-03-27T04:00:50.061Z,3.10
2023-03-27T04:03:59.547Z,2.80
2023-03-27T04:06:26.701Z,3.42
2023-03-27T04:08:56.110Z,3.38
2023-03-27T04:11:24.734Z,3.53
2023-03-27T04:13:52.900Z,3.70
2023-03-27T04:16:36.843Z,3.78
2023-03-27T04:19:06.319Z,3.60
2023-03-27T04:21:36.643Z,3.58
2023-03-27T04:24:03.936Z,3.45
2023-03-27T04:26:31.408Z,3.60
2023-03-27T04:29:02.541Z,3.42
2023-03-27T04:31:30.502Z,3.90
2023-03-27T04:33:57.698Z,4.65
2023-03-27T04:36:25.741Z,4.50
2023-03-27T04:38:52.684Z,5.47
2023-03-27T04:41:19.528Z,4.75
2023-03-27T04:43:48.446Z,5.07
2023-03-27T04:46:15.264Z,5.25
2023-03-27T04:48:44.027Z,4.97
2023-03-27T04:51:10.999Z,4.93
2023-03-27T04:53:38.108Z,4.72
2023-03-27T04:56:06.293Z,4.68
2023-03-27T04:58:36.693Z,4.85
2023-03-27T05:01:05.847Z,4.53
2023-03-27T05:03:35.298Z,4.85
2023-03-27T05:06:04.321Z,5.13
2023-03-27T05:08:31.760Z,4.60
2023-03-27T05:10:58.979Z,5.10
2023-03-27T05:13:26.136Z,5.03
2023-03-27T05:16:17.386Z,5.32
2023-03-27T05:18:45.301Z,5.20
2023-03-27T05:21:13.522Z,6.18
2023-03-27T05:23:40.802Z,5.55
2023-03-27T05:26:07.818Z,5.43
2023-03-27T05:28:34.839Z,5.43
2023-03-27T05:31:34.342Z,5.22
2023-03-27T05:34:03.167Z,4.75
2023-03-27T05:36:30.475Z,5.20
2023-03-27T05:38:57.998Z,4.68
2023-03-27T05:41:25.081Z,5.47
2023-03-27T05:43:52.457Z,4.95
2023-03-27T05:46:21.388Z,4.60
2023-03-27T05:48:48.765Z,4.68
2023-03-27T05:51:16.106Z,4.95
2023-03-27T05:53:43.193Z,5.35
2023-03-27T05:56:10.628Z,4.50
2023-03-27T05:58:37.549Z,5.25
2023-03-27T06:01:05.030Z,4.72
2023-03-27T06:03:35.760Z,5.20
2023-03-27T06:06:11.319Z,4.10
2023-03-27T06:08:38.864Z,3.88
2023-03-27T06:11:10.391Z,3.97
2023-03-27T06:13:38.196Z,4.35
2023-03-27T06:16:05.989Z,3.95
2023-03-27T06:18:33.756Z,3.78
2023-03-27T06:21:00.841Z,3.67
2023-03-27T06:23:27.840Z,3.53
2023-03-27T06:25:54.726Z,3.65
2023-03-27T06:28:21.824Z,3.60
2023-03-27T06:30:49.970Z,4.25
2023-03-27T06:33:16.888Z,3.67
2023-03-27T06:35:52.891Z,3.65
2023-03-27T06:38:20.945Z,3.20
2023-03-27T06:40:47.908Z,3.20
2023-03-27T06:43:18.202Z,3.50
2023-03-27T06:45:49.282Z,3.47
2023-03-27T06:48:21.339Z,3.45
2023-03-27T06:50:50.914Z,3.20
2023-03-27T06:55:49.696Z,3.63
2023-03-27T06:58:19.449Z,3.33
2023-03-27T07:00:49.016Z,3.25
2023-03-27T07:03:18.258Z,3.83
2023-03-27T07:05:49.314Z,3.85
2023-03-27T07:08:24.921Z,4.00
2023-03-27T07:11:10.069Z,4.00
2023-03-27T07:13:38.355Z,4.22
2023-03-27T07:16:05.866Z,3.38
2023-03-27T07:18:32.724Z,3.67
2023-03-27T07:21:00.053Z,3.17
2023-03-27T07:23:27.450Z,3.60
2023-03-27T07:25:59.098Z,3.90
2023-03-27T07:28:26.295Z,3.50
2023-03-27T07:30:53.766Z,3.40
2023-03-27T07:33:20.729Z,3.65
2023-03-27T07:35:51.039Z,3.80
2023-03-27T07:38:21.201Z,3.47
2023-03-27T07:40:49.816Z,3.33
2023-03-27T07:43:16.602Z,3.40
2023-03-27T07:45:43.616Z,3.88
2023-03-27T07:48:17.504Z,3.40
2023-03-27T07:50:45.380Z,3.40
2023-03-27T07:53:33.319Z,3.88
2023-03-27T07:56:00.034Z,4.32
2023-03-27T07:58:27.220Z,4.20
2023-03-27T08:00:54.465Z,4.63
2023-03-27T08:03:23.490Z,4.00
2023-03-27T08:05:56.103Z,4.28
2023-03-27T08:08:24.753Z,5.93
2023-03-27T08:10:54.426Z,3.78
2023-03-27T08:13:21.213Z,2.67
2023-03-27T08:15:48.548Z,3.17
2023-03-27T08:18:15.287Z,5.13
2023-03-27T08:20:42.522Z,4.22
2023-03-27T08:23:10.062Z,3.97
2023-03-27T08:25:36.765Z,3.50
2023-03-27T08:28:03.436Z,2.80
2023-03-27T08:30:30.789Z,3.60
2023-03-27T08:32:58.600Z,3.90
2023-03-27T08:35:25.441Z,3.47
2023-03-27T08:37:54.621Z,3.00
2023-03-27T08:40:28.155Z,3.25
2023-03-27T08:43:00.181Z,2.92
2023-03-27T08:45:32.166Z,2.83
2023-03-27T08:48:08.442Z,2.88
2023-03-27T08:50:41.383Z,3.22
2023-03-27T08:53:35.087Z,3.25
2023-03-27T08:56:03.220Z,3.28
2023-03-27T08:58:30.695Z,3.53
2023-03-27T09:01:05.946Z,2.60
2023-03-27T09:03:41.069Z,2.92
2023-03-27T09:06:20.999Z,2.90
2023-03-27T09:09:24.584Z,3.47
2023-03-27T09:12:24.104Z,3.45
2023-03-27T09:15:00.754Z,3.65
2023-03-27T09:17:34.967Z,3.55
2023-03-27T09:20:22.040Z,3.20
2023-03-27T09:22:54.385Z,3.55
2023-03-27T09:25:34.674Z,3.20
2023-03-27T09:28:03.900Z,3.78
2023-03-27T09:30:33.802Z,3.58
2023-03-27T09:33:06.053Z,3.40
2023-03-27T09:35:35.780Z,4.18
2023-03-27T09:38:17.629Z,3.75
2023-03-27T09:41:02.990Z,3.75
2023-03-27T09:43:43.220Z,3.63
2023-03-27T09:46:13.095Z,3.65
2023-03-27T09:48:50.770Z,3.25
2023-03-27T09:51:37.773Z,3.63
2023-03-27T09:54:05.755Z,3.33
2023-03-27T09:56:37.767Z,4.53
2023-03-27T09:59:38.916Z,3.30
2023-03-27T10:02:23.009Z,3.53
2023-03-27T10:05:22.644Z,4.40
2023-03-27T10:07:49.420Z,3.50
2023-03-27T10:10:21.288Z,4.47
2023-03-27T10:12:56.444Z,4.30
2023-03-27T10:15:37.085Z,4.72
2023-03-27T10:18:20.887Z,4.88
2023-03-27T10:20:52.858Z,3.92
2023-03-27T10:23:28.648Z,4.38
2023-03-27T10:26:01.726Z,3.85
2023-03-27T10:28:34.828Z,4.47
2023-03-27T10:31:05.767Z,4.80
2023-03-27T10:33:35.868Z,4.65
2023-03-27T10:36:06.873Z,4.35
2023-03-27T10:38:37.053Z,4.68
2023-03-27T10:41:14.463Z,4.80
2023-03-27T10:43:43.980Z,4.57
2023-03-27T10:46:15.146Z,4.47
2023-03-27T10:48:52.681Z,4.80
2023-03-27T10:51:46.513Z,4.50
2023-03-27T10:54:37.489Z,4.20
2023-03-27T10:57:15.180Z,4.90
2023-03-27T11:00:20.469Z,4.57
2023-03-27T11:03:00.310Z,4.78
2023-03-27T11:05:32.012Z,4.63
2023-03-27T11:08:11.616Z,4.18
2023-03-27T11:10:42.597Z,5.07
2023-03-27T11:13:22.895Z,3.88
2023-03-27T11:15:55.938Z,5.18
2023-03-27T11:18:26.176Z,4.93
2023-03-27T11:21:13.036Z,4.80
2023-03-27T11:23:52.725Z,5.18
2023-03-27T11:26:26.196Z,5.07
2023-03-27T11:29:20.641Z,5.13
2023-03-27T11:31:51.558Z,5.85
2023-03-27T11:34:34.538Z,4.82
2023-03-27T11:37:13.174Z,4.35
2023-03-27T11:39:48.463Z,3.40
2023-03-27T11:42:21.070Z,2.70
2023-03-27T11:44:51.558Z,2.90
2023-03-27T11:47:42.194Z,3.10
2023-03-27T11:50:36.201Z,2.50
2023-03-27T11:53:06.601Z,3.00
2023-03-27T11:56:01.028Z,3.33
2023-03-27T11:58:44.083Z,3.25
2023-03-27T12:01:17.756Z,2.63
2023-03-27T12:04:00.426Z,3.15
2023-03-27T12:06:33.919Z,3.17
2023-03-27T12:09:08.087Z,3.25
2023-03-27T12:11:42.538Z,2.85
2023-03-27T12:14:40.493Z,2.78
2023-03-27T12:17:11.138Z,2.28
2023-03-27T12:19:53.494Z,1.70
2023-03-27T12:22:54.032Z,2.13
2023-03-27T12:25:36.450Z,1.60
2023-03-27T12:28:27.066Z,1.20
2023-03-27T12:31:16.442Z,1.08
2023-03-27T12:34:16.283Z,2.10
2023-03-27T12:36:48.558Z,1.25
2023-03-27T12:42:14.336Z,0.95
2023-03-27T12:45:14.473Z,1.65
2023-03-27T12:47:46.114Z,0.95
2023-03-27T12:50:28.536Z,2.65
2023-03-27T12:52:57.065Z,1.00
2023-03-27T12:58:37.567Z,2.58
2023-03-27T13:01:09.403Z,2.00
2023-03-27T13:04:09.237Z,1.50
2023-03-27T13:06:44.033Z,0.90
2023-03-27T13:09:24.649Z,1.95
2023-03-27T13:12:26.440Z,1.33
2023-03-27T13:15:21.532Z,1.08
2023-03-27T13:18:23.652Z,3.17
2023-03-27T13:21:16.814Z,2.25
2023-03-27T13:23:55.187Z,2.40
2023-03-27T13:26:48.817Z,1.00
2023-03-27T13:29:19.843Z,1.25
2023-03-27T13:31:47.003Z,1.42
2023-03-27T13:34:41.965Z,4.53
2023-03-27T13:37:11.810Z,3.15
2023-03-27T13:39:56.924Z,3.45
2023-03-27T13:42:50.160Z,0.80
2023-03-27T13:45:47.154Z,2.10
2023-03-27T13:48:19.456Z,0.77
2023-03-27T13:51:01.986Z,1.25
2023-03-27T13:53:53.077Z,2.58
2023-03-27T13:56:44.306Z,2.92
2023-03-27T13:59:40.334Z,1.27
2023-03-27T14:02:18.927Z,1.15
2023-03-27T14:04:46.124Z,1.17
2023-03-27T14:07:37.256Z,1.50
2023-03-27T14:10:17.442Z,1.48
2023-03-27T14:12:53.595Z,1.05
2023-03-27T14:15:42.504Z,0.82
2023-03-27T14:18:12.767Z,1.17
2023-03-27T14:20:46.066Z,1.48
2023-03-27T14:23:19.477Z,1.75
2023-03-27T14:25:53.822Z,4.95
2023-03-27T14:28:33.397Z,8.68
2023-03-27T14:31:06.208Z,4.40
2023-03-27T14:33:34.288Z,3.78
2023-03-27T14:36:05.635Z,3.58
2023-03-27T14:38:35.766Z,1.73
2023-03-27T14:41:17.576Z,1.60
2023-03-27T14:43:52.715Z,1.52
2023-03-27T14:46:21.609Z,2.17
2023-03-27T14:48:53.386Z,2.20
2023-03-27T14:51:27.274Z,3.45
2023-03-27T14:54:01.971Z,6.20
2023-03-27T14:56:37.931Z,4.60
2023-03-27T14:59:12.560Z,5.95
2023-03-27T15:01:41.035Z,6.13
2023-03-27T15:04:11.423Z,5.55
2023-03-27T15:06:39.254Z,3.60
2023-03-27T15:09:14.484Z,5.00
2023-03-27T15:11:44.799Z,4.20
2023-03-27T15:14:18.652Z,3.53
2023-03-27T15:16:55.538Z,3.13
2023-03-27T15:19:28.743Z,2.33
2023-03-27T15:22:01.137Z,2.50
2023-03-27T15:24:43.585Z,2.60
2023-03-27T15:27:27.435Z,2.65
2023-03-27T15:30:00.324Z,2.90
2023-03-27T15:32:52.576Z,2.47
2023-03-27T15:35:27.983Z,2.60
2023-03-27T15:37:56.939Z,2.50
2023-03-27T15:40:42.619Z,3.78
2023-03-27T15:43:12.710Z,3.17
2023-03-27T15:45:56.726Z,2.40
2023-03-27T15:48:35.674Z,2.45
2023-03-27T15:51:04.499Z,1.42
2023-03-27T15:53:36.576Z,2.03
2023-03-27T15:56:13.892Z,1.98
2023-03-27T15:58:48.324Z,2.40
2023-03-27T16:01:28.558Z,2.20
2023-03-27T16:04:02.436Z,2.58
2023-03-27T16:06:37.420Z,3.60
2023-03-27T16:09:10.572Z,11.40
2023-03-27T16:11:45.725Z,7.00
2023-03-27T16:14:41.304Z,8.48
2023-03-27T16:17:20.626Z,7.07
2023-03-27T16:19:55.208Z,7.60
2023-03-27T16:22:35.789Z,7.78
2023-03-27T16:25:07.953Z,10.82
2023-03-27T16:27:45.172Z,7.72
2023-03-27T16:30:32.897Z,11.52
2023-03-27T16:33:02.967Z,6.65
2023-03-27T16:35:34.790Z,3.65
2023-03-27T16:38:02.086Z,7.60
2023-03-27T16:40:28.909Z,10.65
2023-03-27T16:42:55.936Z,10.48
2023-03-27T16:45:23.081Z,10.25
2023-03-27T16:47:53.072Z,10.68
2023-03-27T16:50:23.435Z,8.38
2023-03-27T16:52:51.313Z,6.60
2023-03-27T16:55:18.251Z,6.25
2023-03-27T16:57:47.011Z,3.53
2023-03-27T17:00:15.761Z,3.80
2023-03-27T17:02:45.511Z,3.53
2023-03-27T17:05:15.065Z,2.90
2023-03-27T17:07:42.004Z,2.33
2023-03-27T17:10:10.608Z,2.63
2023-03-27T17:12:37.906Z,2.03
2023-03-27T17:15:05.166Z,3.85
2023-03-27T17:17:32.221Z,3.67
2023-03-27T17:19:59.484Z,7.60
2023-03-27T17:22:26.820Z,8.13
2023-03-27T17:24:57.311Z,11.18
2023-03-27T17:27:28.456Z,6.72
2023-03-27T17:29:58.592Z,6.40
2023-03-27T17:32:28.717Z,3.45
2023-03-27T17:34:56.097Z,3.40
2023-03-27T17:37:24.029Z,3.28
2023-03-27T17:39:51.199Z,3.45
2023-03-27T17:42:21.086Z,4.53
2023-03-27T17:45:03.843Z,5.88
2023-03-27T17:47:31.682Z,5.75
2023-03-27T17:50:01.732Z,3.15
2023-03-27T17:52:29.795Z,2.85
2023-03-27T17:55:20.169Z,2.20
2023-03-27T17:57:53.111Z,1.65
2023-03-27T18:00:26.520Z,3.30
2023-03-27T18:03:13.508Z,3.30
2023-03-27T18:05:42.028Z,3.53
2023-03-27T18:08:11.146Z,2.78
2023-03-27T18:10:53.872Z,2.28
2023-03-27T18:13:20.666Z,3.00
2023-03-27T18:15:55.696Z,2.70
2023-03-27T18:18:23.126Z,2.40
2023-03-27T18:20:54.199Z,1.80
2023-03-27T18:23:24.185Z,2.50
2023-03-27T18:25:50.974Z,2.50
2023-03-27T18:28:17.856Z,2.92
2023-03-27T18:30:45.186Z,19.63
2023-03-27T18:33:12.000Z,8.25
2023-03-27T18:35:39.476Z,8.50
2023-03-27T18:38:07.153Z,4.22
2023-03-27T18:40:34.287Z,4.88
2023-03-27T18:43:01.083Z,12.38
2023-03-27T18:45:29.928Z,10.73
2023-03-27T18:47:57.390Z,9.25
2023-03-27T18:50:24.297Z,14.57
2023-03-27T18:52:51.351Z,9.23
2023-03-27T18:55:18.372Z,9.70
2023-03-27T18:57:45.572Z,8.07
2023-03-27T19:00:18.990Z,5.60
2023-03-27T19:02:48.702Z,4.60
2023-03-27T19:05:16.427Z,3.90
2023-03-27T19:07:44.982Z,3.67
2023-03-27T19:10:12.890Z,2.85
2023-03-27T19:12:39.558Z,2.55
2023-03-27T19:15:19.233Z,2.22
2023-03-27T19:17:46.799Z,2.17
2023-03-27T19:20:14.363Z,2.38
2023-03-27T19:22:41.321Z,3.22
2023-03-27T19:25:09.096Z,3.15
2023-03-27T19:27:39.423Z,4.10
2023-03-27T19:30:07.985Z,5.38
2023-03-27T19:32:34.885Z,4.85
2023-03-27T19:35:02.127Z,4.40
2023-03-27T19:37:30.025Z,4.93
2023-03-27T19:39:59.718Z,4.05
2023-03-27T19:42:28.947Z,3.67
2023-03-27T19:44:56.836Z,3.45
2023-03-27T19:47:24.089Z,3.25
2023-03-27T19:49:51.370Z,4.93
2023-03-27T19:52:24.573Z,4.28
2023-03-27T20:21:56.474Z,1.42
2023-03-27T20:24:26.657Z,1.50
2023-03-27T20:29:41.121Z,1.50
2023-03-27T20:32:08.934Z,1.20
2023-03-27T20:34:43.275Z,1.30
2023-03-27T20:37:12.155Z,1.27
2023-03-27T20:39:49.887Z,1.08
2023-03-27T20:42:18.251Z,1.10
2023-03-27T20:44:45.990Z,1.10
2023-03-27T20:47:15.222Z,0.88
2023-03-27T20:49:43.552Z,1.05
2023-03-27T20:52:18.204Z,1.17
2023-03-27T20:54:45.663Z,1.08
2023-03-27T20:57:12.539Z,0.82
2023-03-27T20:59:48.839Z,0.70
2023-03-27T21:02:19.331Z,0.80
2023-03-27T21:04:47.441Z,0.80
2023-03-27T21:07:17.030Z,0.80
2023-03-27T21:10:02.863Z,0.85
2023-03-27T21:12:30.654Z,0.63
2023-03-27T21:14:57.469Z,0.60
2023-03-27T21:17:24.627Z,0.70
2023-03-27T21:19:52.004Z,0.80
2023-03-27T21:22:18.905Z,0.50
2023-03-27T21:24:45.964Z,0.50
2023-03-27T21:27:13.654Z,0.70
2023-03-27T21:29:41.114Z,0.50
2023-03-27T21:32:08.213Z,0.73
2023-03-27T21:34:36.083Z,0.70
2023-03-27T21:37:03.044Z,0.70
2023-03-27T21:39:29.812Z,0.40
2023-03-27T21:44:39.366Z,0.50
2023-03-27T21:47:47.219Z,0.52
2023-03-27T21:50:14.700Z,0.45
2023-03-27T21:52:44.303Z,0.85
2023-03-27T21:55:11.069Z,0.50
2023-03-27T21:57:38.043Z,0.50
2023-03-27T22:00:07.861Z,0.63
2023-03-27T22:02:34.733Z,0.70
2023-03-27T22:05:05.123Z,0.80
2023-03-27T22:07:35.397Z,0.93
2023-03-27T22:10:03.636Z,0.70
2023-03-27T22:12:31.178Z,1.13
2023-03-27T22:14:58.454Z,1.08
2023-03-27T22:17:25.244Z,1.20
2023-03-27T22:19:52.513Z,1.13
2023-03-27T22:22:19.785Z,1.10
2023-03-27T22:24:50.419Z,1.20
2023-03-27T22:27:17.758Z,0.93
2023-03-27T22:29:47.085Z,1.20
2023-03-27T22:32:14.051Z,1.40
2023-03-27T22:34:41.150Z,1.35
2023-03-27T22:37:08.368Z,1.33
2023-03-27T22:39:35.465Z,1.42
2023-03-27T22:42:33.226Z,1.00
2023-03-27T22:45:00.498Z,1.45
2023-03-27T22:47:27.879Z,1.20
2023-03-27T22:49:56.008Z,1.17
2023-03-27T22:52:25.380Z,1.42
2023-03-27T22:54:52.553Z,1.17
2023-03-27T22:57:19.419Z,1.38
2023-03-27T22:59:48.942Z,1.30
2023-03-27T23:02:16.487Z,1.45
2023-03-27T23:04:51.017Z,1.50
2023-03-27T23:07:23.566Z,1.50
2023-03-27T23:10:05.252Z,1.38
2023-03-27T23:12:32.421Z,1.70
2023-03-27T23:14:59.109Z,1.50
2023-03-27T23:17:25.945Z,1.30
2023-03-27T23:19:52.834Z,1.38
2023-03-27T23:22:19.629Z,1.40
2023-03-27T23:24:46.844Z,1.10
2023-03-27T23:27:14.151Z,1.08
2023-03-27T23:29:40.846Z,1.35
2023-03-27T23:32:07.566Z,0.90
2023-03-27T23:34:34.633Z,1.02
2023-03-27T23:37:01.363Z,1.10
2023-03-27T23:39:28.393Z,1.10
2023-03-27T23:41:55.561Z,1.40
2023-03-27T23:44:22.405Z,1.00
2023-03-27T23:46:49.116Z,1.23
2023-03-27T23:49:16.533Z,1.15
2023-03-27T23:51:43.213Z,0.98
2023-03-27T23:54:09.963Z,1.00
2023-03-27T23:56:36.954Z,1.20
2023-03-27T23:59:03.691Z,1.45
